Time;durP1;ratioP1;P1;durP2;ratioP2;P2;SDS_P1;SDS_P2;PMS_P1;PMS_P2;Temp;Humidity;BMP_temperature;BMP_pressure;BME280_temperature;BME280_humidity;BME280_pressure;Samples;Min_cycle;Max_cycle;Signal;HPM_P1;HPM_P2
2021/11/28 00:00:44;;;;;;;9.80;6.15;;;4.50;96.60;;;;;;5054501;28;20443;-79
2021/11/28 00:03:15;;;;;;;11.13;6.78;;;4.50;96.60;;;;;;5064499;28;20028;-79
2021/11/28 00:05:42;;;;;;;10.43;7.13;;;4.50;96.60;;;;;;5072518;28;20036;-79
2021/11/28 00:08:36;;;;;;;11.43;7.35;;;4.50;96.70;;;;;;5072132;28;20531;-79
2021/11/28 00:11:27;;;;;;;17.80;7.45;;;4.50;96.70;;;;;;5042671;28;20028;-79
2021/11/28 00:14:30;;;;;;;14.00;7.80;;;4.50;96.70;;;;;;5051952;28;20033;-79
2021/11/28 00:16:37;;;;;;;11.45;7.53;;;4.50;96.70;;;;;;5048957;28;20041;-79
2021/11/28 00:19:04;;;;;;;9.68;6.68;;;4.50;96.70;;;;;;5073792;28;20055;-79
2021/11/28 00:21:31;;;;;;;12.52;7.22;;;4.50;96.70;;;;;;5074093;28;20048;-79
2021/11/28 00:23:57;;;;;;;10.85;7.45;;;4.50;96.80;;;;;;5074053;28;20754;-79
2021/11/28 00:26:23;;;;;;;14.13;8.27;;;4.50;96.80;;;;;;5073892;28;20119;-79
2021/11/28 00:28:49;;;;;;;10.98;7.38;;;4.50;96.90;;;;;;5039089;28;20520;-79
2021/11/28 00:31:15;;;;;;;13.88;7.97;;;4.50;96.90;;;;;;5055982;28;20029;-79
2021/11/28 00:33:41;;;;;;;21.35;8.20;;;4.50;96.90;;;;;;5036749;28;20081;-79
2021/11/28 00:36:07;;;;;;;14.05;8.00;;;4.50;96.90;;;;;;5054997;28;20425;-79
2021/11/28 00:38:32;;;;;;;11.27;7.97;;;4.50;96.80;;;;;;5073515;28;20009;-79
2021/11/28 00:40:58;;;;;;;10.55;6.93;;;4.50;96.80;;;;;;5073083;28;20374;-79
2021/11/28 00:43:24;;;;;;;14.57;8.00;;;4.50;96.90;;;;;;5054328;28;20024;-79
2021/11/28 00:45:50;;;;;;;12.98;7.75;;;4.50;96.90;;;;;;5038998;28;20119;-79
2021/11/28 00:48:16;;;;;;;10.13;7.50;;;4.50;96.80;;;;;;5073744;28;20082;-79
2021/11/28 00:50:49;;;;;;;12.48;8.18;;;4.50;96.70;;;;;;5073408;28;20032;-79
2021/11/28 00:53:17;;;;;;;13.75;8.23;;;4.50;96.80;;;;;;5073086;28;20082;-79
2021/11/28 00:55:43;;;;;;;12.60;8.88;;;4.50;96.80;;;;;;5070029;28;20024;-79
2021/11/28 00:58:09;;;;;;;16.25;9.27;;;4.50;96.90;;;;;;5055465;28;20388;-79
2021/11/28 01:00:35;;;;;;;15.02;9.52;;;4.50;96.90;;;;;;5073567;28;20107;-79
2021/11/28 01:03:01;;;;;;;13.63;7.88;;;4.50;96.90;;;;;;5073346;28;20031;-79
2021/11/28 01:05:26;;;;;;;16.02;8.98;;;4.50;96.90;;;;;;5073173;28;20028;-79
2021/11/28 01:07:52;;;;;;;13.32;9.25;;;4.50;96.90;;;;;;5051606;28;20400;-79
2021/11/28 01:10:17;;;;;;;14.15;8.95;;;4.50;96.90;;;;;;5066760;28;20112;-79
2021/11/28 01:12:44;;;;;;;14.00;8.40;;;4.50;96.90;;;;;;5073356;28;20074;-79
2021/11/28 01:15:11;;;;;;;16.60;9.25;;;4.50;97.00;;;;;;5032350;28;20870;-79
2021/11/28 01:17:38;;;;;;;12.43;8.95;;;4.50;97.00;;;;;;5054809;28;20035;-79
2021/11/28 01:20:05;;;;;;;14.50;8.77;;;4.50;97.00;;;;;;5072294;28;20428;-78
2021/11/28 01:22:31;;;;;;;13.07;8.45;;;4.50;97.00;;;;;;5072602;28;20028;-79
2021/11/28 01:24:57;;;;;;;14.75;9.70;;;4.50;97.00;;;;;;5054397;28;20486;-79
2021/11/28 01:27:23;;;;;;;14.82;8.60;;;4.50;97.00;;;;;;5054832;28;20043;-79
2021/11/28 01:29:48;;;;;;;14.70;8.63;;;4.50;97.00;;;;;;5054450;28;20028;-79
2021/11/28 01:32:15;;;;;;;20.60;9.60;;;4.50;97.00;;;;;;5054493;28;20029;-79
2021/11/28 01:34:41;;;;;;;13.43;8.15;;;4.50;97.00;;;;;;5037813;28;20025;-79
2021/11/28 01:37:07;;;;;;;11.45;8.05;;;4.50;97.10;;;;;;5072353;28;20842;-79
2021/11/28 01:39:33;;;;;;;13.32;8.65;;;4.50;97.10;;;;;;5054249;28;20096;-79
2021/11/28 01:42:00;;;;;;;13.38;8.60;;;4.40;97.10;;;;;;5053311;28;20036;-79
2021/11/28 01:44:26;;;;;;;15.38;9.25;;;4.40;97.10;;;;;;5052814;28;20032;-79
2021/11/28 01:46:51;;;;;;;12.23;8.43;;;4.40;97.10;;;;;;5070565;28;20036;-79
2021/11/28 01:49:20;;;;;;;14.05;8.90;;;4.40;97.10;;;;;;5052521;28;20029;-79
2021/11/28 01:51:46;;;;;;;13.73;9.00;;;4.30;97.10;;;;;;5071684;28;20508;-79
2021/11/28 01:54:13;;;;;;;16.65;8.90;;;4.20;97.20;;;;;;5053182;28;20045;-79
2021/11/28 01:56:46;;;;;;;15.25;9.70;;;4.20;97.20;;;;;;5051136;28;20021;-79
2021/11/28 01:59:12;;;;;;;13.73;9.05;;;4.10;97.30;;;;;;5069213;28;20035;-79
2021/11/28 02:01:38;;;;;;;14.95;9.23;;;4.20;97.30;;;;;;5050359;28;20048;-79
2021/11/28 02:04:07;;;;;;;18.35;9.60;;;4.10;97.30;;;;;;5071237;28;20032;-79
2021/11/28 02:06:33;;;;;;;13.85;8.75;;;4.10;97.40;;;;;;5071773;28;20040;-79
2021/11/28 02:08:59;;;;;;;16.15;8.85;;;4.00;97.40;;;;;;5067175;28;20115;-79
2021/11/28 02:11:25;;;;;;;13.95;9.45;;;4.00;97.40;;;;;;5051404;28;20346;-79
2021/11/28 02:13:51;;;;;;;16.80;9.10;;;4.00;97.50;;;;;;5066020;28;20035;-79
2021/11/28 02:16:17;;;;;;;17.40;8.50;;;4.00;97.50;;;;;;5068562;28;20102;-79
2021/11/28 02:18:43;;;;;;;17.08;8.48;;;4.00;97.50;;;;;;5070212;28;20021;-79
2021/11/28 02:21:10;;;;;;;18.13;8.18;;;4.00;97.50;;;;;;5053620;28;20036;-79
2021/11/28 02:23:37;;;;;;;19.17;9.68;;;4.00;97.50;;;;;;5053588;28;20036;-79
2021/11/28 02:26:07;;;;;;;15.02;8.80;;;4.00;97.50;;;;;;5071437;28;20025;-79
2021/11/28 02:28:34;;;;;;;12.10;8.55;;;4.00;97.50;;;;;;5053629;28;20029;-79
2021/11/28 02:31:00;;;;;;;16.80;8.63;;;4.00;97.60;;;;;;5053811;28;20430;-79
2021/11/28 02:33:26;;;;;;;13.85;8.95;;;4.00;97.60;;;;;;5057399;28;20063;-79
2021/11/28 02:35:51;;;;;;;12.90;8.98;;;4.00;97.60;;;;;;5075723;28;20040;-79
2021/11/28 02:38:17;;;;;;;12.60;8.80;;;4.00;97.60;;;;;;5069490;28;20021;-79
2021/11/28 02:40:43;;;;;;;12.88;8.25;;;4.00;97.60;;;;;;5041540;28;20048;-79
2021/11/28 02:43:10;;;;;;;14.23;8.73;;;4.00;97.70;;;;;;5041076;28;20127;-79
2021/11/28 02:45:35;;;;;;;12.32;7.78;;;4.00;97.70;;;;;;5055218;28;20154;-79
2021/11/28 02:48:07;;;;;;;12.38;8.02;;;4.00;97.70;;;;;;5069858;28;20103;-79
2021/11/28 02:50:33;;;;;;;13.45;9.00;;;4.00;97.80;;;;;;5075515;28;20085;-79
2021/11/28 02:53:01;;;;;;;13.52;9.40;;;4.00;97.80;;;;;;5075620;28;20025;-79
2021/11/28 02:55:34;;;;;;;11.40;8.33;;;4.10;97.80;;;;;;5075710;28;20380;-79
2021/11/28 02:58:01;;;;;;;13.27;8.70;;;4.00;97.80;;;;;;5057703;28;20024;-79
2021/11/28 03:00:30;;;;;;;10.43;7.53;;;4.10;97.80;;;;;;5057493;28;20032;-79
2021/11/28 03:02:56;;;;;;;13.77;8.80;;;4.00;97.80;;;;;;5075010;28;20103;-79
2021/11/28 03:05:21;;;;;;;13.77;8.35;;;4.10;97.90;;;;;;5056858;28;20441;-79
2021/11/28 03:07:47;;;;;;;10.70;8.55;;;4.10;97.90;;;;;;5075298;28;20158;-79
2021/11/28 03:10:41;;;;;;;12.15;7.90;;;4.10;97.80;;;;;;5074135;28;20020;-79
2021/11/28 03:13:20;;;;;;;16.52;8.80;;;4.10;97.90;;;;;;5073869;28;20059;-80
2021/11/28 03:15:47;;;;;;;13.38;8.18;;;4.10;97.90;;;;;;5070237;28;20041;-79
2021/11/28 03:18:14;;;;;;;10.23;8.40;;;4.10;97.90;;;;;;5054927;28;20036;-79
2021/11/28 03:20:41;;;;;;;12.43;9.18;;;4.10;97.90;;;;;;5072755;28;20024;-79
2021/11/28 03:23:07;;;;;;;11.68;8.20;;;4.10;97.90;;;;;;5075370;28;20179;-79
2021/11/28 03:25:34;;;;;;;13.77;8.50;;;4.10;97.90;;;;;;5057071;28;20406;-79
2021/11/28 03:27:59;;;;;;;12.40;8.57;;;4.10;98.00;;;;;;5074834;28;20085;-79
2021/11/28 03:30:25;;;;;;;11.93;8.25;;;4.20;98.00;;;;;;5074265;28;20028;-79
2021/11/28 03:32:51;;;;;;;17.60;10.90;;;4.20;98.00;;;;;;5074452;28;20028;-79
2021/11/28 03:35:18;;;;;;;16.70;9.77;;;4.20;98.00;;;;;;5057195;28;20074;-79
2021/11/28 03:37:44;;;;;;;18.73;9.95;;;4.10;97.90;;;;;;5074884;28;20048;-79
2021/11/28 03:40:12;;;;;;;14.63;9.75;;;4.10;98.10;;;;;;5074617;28;20047;-79
2021/11/28 03:42:38;;;;;;;12.63;8.57;;;4.10;98.20;;;;;;5056435;28;20035;-79
2021/11/28 03:45:08;;;;;;;16.40;9.23;;;4.20;98.30;;;;;;5056888;28;20119;-79
2021/11/28 03:47:35;;;;;;;14.30;9.40;;;4.20;98.20;;;;;;5074351;28;20067;-79
2021/11/28 03:50:01;;;;;;;15.07;9.50;;;4.20;98.30;;;;;;5074603;28;20485;-79
2021/11/28 03:52:27;;;;;;;16.83;10.98;;;4.30;98.30;;;;;;5074225;28;20029;-79
2021/11/28 03:54:52;;;;;;;17.77;10.95;;;4.30;98.30;;;;;;5075084;28;20531;-79
2021/11/28 03:57:18;;;;;;;15.00;11.18;;;4.30;98.20;;;;;;5074274;28;20439;-79
2021/11/28 03:59:43;;;;;;;18.83;11.77;;;4.30;98.20;;;;;;5040153;28;20032;-79
2021/11/28 04:02:09;;;;;;;16.17;12.50;;;4.30;98.20;;;;;;5074690;28;20033;-79
2021/11/28 04:04:35;;;;;;;21.17;13.30;;;4.30;98.20;;;;;;5074308;28;20097;-79
2021/11/28 04:07:01;;;;;;;16.73;12.48;;;4.40;98.20;;;;;;5056106;28;20167;-79
2021/11/28 04:09:26;;;;;;;20.58;13.13;;;4.30;98.30;;;;;;5074127;28;20028;-79
2021/11/28 04:11:52;;;;;;;17.80;12.20;;;4.30;98.20;;;;;;5056258;28;20038;-79
2021/11/28 04:14:19;;;;;;;19.88;13.35;;;4.30;98.20;;;;;;5074416;28;20024;-79
2021/11/28 04:16:45;;;;;;;18.17;12.50;;;4.40;98.20;;;;;;5072662;28;20063;-79
2021/11/28 04:19:11;;;;;;;20.15;13.25;;;4.40;98.30;;;;;;5074023;28;20052;-79
2021/11/28 04:21:41;;;;;;;21.60;14.18;;;4.40;98.20;;;;;;5073651;28;20082;-79
2021/11/28 04:24:07;;;;;;;21.17;14.10;;;4.40;98.20;;;;;;5072291;28;20036;-79
2021/11/28 04:26:33;;;;;;;18.75;13.45;;;4.40;98.30;;;;;;5051055;28;20751;-79
2021/11/28 04:28:58;;;;;;;22.73;13.93;;;4.40;98.30;;;;;;5068679;28;20439;-79
2021/11/28 04:31:24;;;;;;;19.67;14.00;;;4.40;98.30;;;;;;5068084;28;20033;-79
2021/11/28 04:33:50;;;;;;;20.52;13.73;;;4.40;98.30;;;;;;5070966;28;20025;-79
2021/11/28 04:36:15;;;;;;;25.55;16.05;;;4.40;98.30;;;;;;5067991;28;20055;-79
2021/11/28 04:38:41;;;;;;;29.55;17.05;;;4.40;98.30;;;;;;5071776;28;20049;-79
2021/11/28 04:41:06;;;;;;;22.20;16.52;;;4.40;98.30;;;;;;5072108;28;20050;-79
2021/11/28 04:43:32;;;;;;;26.13;15.57;;;4.30;98.30;;;;;;5072196;28;20039;-79
2021/11/28 04:45:58;;;;;;;22.23;16.10;;;4.40;98.40;;;;;;5073489;28;20032;-79
2021/11/28 04:48:23;;;;;;;25.48;16.38;;;4.30;98.40;;;;;;5072318;28;20033;-79
2021/11/28 04:50:49;;;;;;;27.60;18.55;;;4.40;98.40;;;;;;5071874;28;20389;-79
2021/11/28 04:53:15;;;;;;;20.35;14.88;;;4.30;98.30;;;;;;5055397;28;20366;-79
2021/11/28 04:55:40;;;;;;;26.55;17.90;;;4.30;98.40;;;;;;5070564;28;20377;-79
2021/11/28 04:58:06;;;;;;;31.40;17.63;;;4.30;98.40;;;;;;5070288;28;20032;-79
2021/11/28 05:00:32;;;;;;;29.17;18.85;;;4.30;98.40;;;;;;5073074;28;20370;-79
2021/11/28 05:02:58;;;;;;;24.98;17.50;;;4.30;98.50;;;;;;5055714;28;20036;-79
2021/11/28 05:05:25;;;;;;;27.27;16.98;;;4.30;98.50;;;;;;5071360;28;20507;-79
2021/11/28 05:07:51;;;;;;;23.48;16.30;;;4.30;98.50;;;;;;5072672;28;20024;-79
2021/11/28 05:10:17;;;;;;;23.20;16.35;;;4.30;98.50;;;;;;5064658;28;20515;-79
2021/11/28 05:12:43;;;;;;;27.23;16.80;;;4.30;98.50;;;;;;5073212;28;20028;-79
2021/11/28 05:15:09;;;;;;;24.80;16.83;;;4.30;98.50;;;;;;5072025;28;20444;-79
2021/11/28 05:17:35;;;;;;;24.58;16.95;;;4.30;98.50;;;;;;5071870;28;20115;-79
2021/11/28 05:20:03;;;;;;;25.63;17.98;;;4.30;98.50;;;;;;5072999;28;20116;-79
2021/11/28 05:22:29;;;;;;;28.48;16.65;;;4.30;98.50;;;;;;5072662;28;20036;-79
2021/11/28 05:24:54;;;;;;;28.05;17.70;;;4.40;98.60;;;;;;5071738;28;20538;-79
2021/11/28 05:27:20;;;;;;;24.15;16.75;;;4.40;98.60;;;;;;5071348;28;20036;-79
2021/11/28 05:29:46;;;;;;;26.10;16.23;;;4.40;98.60;;;;;;5073174;28;20036;-79
2021/11/28 05:32:12;;;;;;;29.27;17.42;;;4.40;98.60;;;;;;5071806;28;20519;-79
2021/11/28 05:34:38;;;;;;;26.73;18.02;;;4.40;98.50;;;;;;5055346;28;20032;-79
2021/11/28 05:37:04;;;;;;;30.80;17.70;;;4.30;98.60;;;;;;5071526;28;20385;-79
2021/11/28 05:39:30;;;;;;;22.35;16.17;;;4.40;98.90;;;;;;5070657;28;20052;-79
2021/11/28 05:41:57;;;;;;;30.52;18.52;;;4.40;98.60;;;;;;5070230;28;20117;-79
2021/11/28 05:44:23;;;;;;;29.40;18.67;;;4.30;98.60;;;;;;5070530;28;20031;-79
2021/11/28 05:46:49;;;;;;;27.73;18.73;;;4.40;98.70;;;;;;5072700;28;20028;-79
2021/11/28 05:49:15;;;;;;;30.90;19.25;;;4.40;98.60;;;;;;5070510;28;20031;-79
2021/11/28 05:51:40;;;;;;;25.38;17.40;;;4.40;98.70;;;;;;5068401;28;20499;-79
2021/11/28 05:54:06;;;;;;;29.75;17.30;;;4.40;98.70;;;;;;5067871;28;20773;-79
2021/11/28 05:56:32;;;;;;;23.27;17.33;;;4.30;98.70;;;;;;5058177;28;20029;-79
2021/11/28 05:58:57;;;;;;;28.60;16.80;;;4.40;98.70;;;;;;5040287;28;20027;-79
2021/11/28 06:01:23;;;;;;;26.27;17.65;;;4.40;98.70;;;;;;5052997;28;20025;-79
2021/11/28 06:03:49;;;;;;;24.98;16.85;;;4.40;98.70;;;;;;5059792;28;20082;-79
2021/11/28 06:06:15;;;;;;;28.90;18.85;;;4.40;98.70;;;;;;5073062;28;20032;-79
2021/11/28 06:08:41;;;;;;;28.58;17.88;;;4.40;98.70;;;;;;5066020;28;20067;-79
2021/11/28 06:11:07;;;;;;;30.55;19.33;;;4.40;98.70;;;;;;5066326;28;20051;-79
2021/11/28 06:13:33;;;;;;;24.65;17.23;;;4.40;98.70;;;;;;5071881;28;20537;-79
2021/11/28 06:15:59;;;;;;;28.30;17.65;;;4.40;98.70;;;;;;5068137;28;20099;-79
2021/11/28 06:18:25;;;;;;;27.90;17.92;;;4.40;98.70;;;;;;5053957;28;20028;-79
2021/11/28 06:20:50;;;;;;;27.15;18.95;;;4.40;98.70;;;;;;5054417;28;20032;-79
2021/11/28 06:23:16;;;;;;;30.27;18.08;;;4.40;98.70;;;;;;5054375;28;20374;-79
2021/11/28 06:25:42;;;;;;;24.67;18.23;;;4.30;98.70;;;;;;5072570;28;20195;-79
2021/11/28 06:28:08;;;;;;;27.02;18.38;;;4.40;98.80;;;;;;5071776;28;20153;-79
2021/11/28 06:30:34;;;;;;;29.10;19.58;;;4.40;98.80;;;;;;5024054;28;20771;-79
2021/11/28 06:33:00;;;;;;;28.00;18.00;;;4.40;98.80;;;;;;5021856;28;20061;-79
2021/11/28 06:35:25;;;;;;;26.80;19.35;;;4.40;98.70;;;;;;5023568;28;20115;-79
2021/11/28 06:37:52;;;;;;;27.90;17.63;;;4.30;98.70;;;;;;5031531;28;20029;-79
2021/11/28 06:40:17;;;;;;;27.58;17.58;;;4.30;98.70;;;;;;5046264;28;20056;-79
2021/11/28 06:42:43;;;;;;;27.85;17.90;;;4.30;98.70;;;;;;5069525;28;20106;-79
2021/11/28 06:45:10;;;;;;;34.10;16.83;;;4.30;98.70;;;;;;5069415;28;20047;-79
2021/11/28 06:47:35;;;;;;;30.10;18.58;;;4.30;98.70;;;;;;5051028;28;20086;-79
2021/11/28 06:50:02;;;;;;;29.30;19.60;;;4.30;98.70;;;;;;5050196;28;20413;-79
2021/11/28 06:52:27;;;;;;;25.73;17.73;;;4.20;98.60;;;;;;5061499;28;20065;-79
2021/11/28 06:54:53;;;;;;;27.95;19.35;;;4.20;98.70;;;;;;5065462;28;20420;-79
2021/11/28 06:57:18;;;;;;;32.33;19.08;;;4.20;98.70;;;;;;5033651;28;20028;-79
2021/11/28 06:59:44;;;;;;;26.70;17.70;;;4.10;98.60;;;;;;5050282;28;20085;-79
2021/11/28 07:02:10;;;;;;;25.52;17.55;;;4.10;98.70;;;;;;5050504;28;20036;-79
2021/11/28 07:04:35;;;;;;;27.83;17.83;;;4.10;98.70;;;;;;5066733;28;20108;-79
2021/11/28 07:07:01;;;;;;;27.30;17.35;;;4.10;98.70;;;;;;5033545;28;20090;-79
2021/11/28 07:09:30;;;;;;;27.13;17.85;;;4.10;98.70;;;;;;5050690;28;20134;-79
2021/11/28 07:11:55;;;;;;;28.13;18.05;;;4.10;99.00;;;;;;5032219;28;20040;-79
2021/11/28 07:14:21;;;;;;;26.83;18.05;;;4.10;98.70;;;;;;5059717;28;20414;-79
2021/11/28 07:16:47;;;;;;;30.63;20.45;;;4.10;98.70;;;;;;5066813;28;20044;-79
2021/11/28 07:19:12;;;;;;;28.63;19.70;;;4.20;98.80;;;;;;5072671;28;20512;-79
2021/11/28 07:21:38;;;;;;;31.60;18.27;;;4.20;98.70;;;;;;5073514;28;20044;-79
2021/11/28 07:24:04;;;;;;;36.20;21.20;;;4.10;98.80;;;;;;5050931;28;20040;-79
2021/11/28 07:26:29;;;;;;;26.52;18.70;;;4.10;98.70;;;;;;5070919;28;20056;-79
2021/11/28 07:28:55;;;;;;;26.98;18.13;;;4.10;98.80;;;;;;5069490;28;20029;-79
2021/11/28 07:31:21;;;;;;;30.63;19.17;;;4.10;98.80;;;;;;5069134;28;20173;-79
2021/11/28 07:33:47;;;;;;;33.15;20.33;;;4.10;98.90;;;;;;5072579;28;20025;-79
2021/11/28 07:36:13;;;;;;;26.35;18.60;;;4.20;98.80;;;;;;5072164;28;20075;-79
2021/11/28 07:38:39;;;;;;;28.30;18.75;;;4.10;98.80;;;;;;5070834;28;20032;-79
2021/11/28 07:41:04;;;;;;;27.17;17.73;;;4.10;98.80;;;;;;5065767;28;20024;-79
2021/11/28 07:43:31;;;;;;;32.17;20.17;;;4.10;98.80;;;;;;5053674;28;20056;-79
2021/11/28 07:45:57;;;;;;;31.02;19.88;;;4.20;98.80;;;;;;5064630;28;20567;-79
2021/11/28 07:48:23;;;;;;;26.95;19.30;;;4.10;98.80;;;;;;5052249;28;20086;-79
2021/11/28 07:50:49;;;;;;;30.27;18.45;;;4.20;98.90;;;;;;5067637;28;20040;-79
2021/11/28 07:53:15;;;;;;;28.40;18.80;;;4.20;98.90;;;;;;5059958;28;20509;-79
2021/11/28 07:55:42;;;;;;;39.50;22.45;;;4.20;98.90;;;;;;5072397;28;20035;-79
2021/11/28 07:58:07;;;;;;;34.03;22.55;;;4.20;99.10;;;;;;5066387;28;20056;-79
2021/11/28 08:00:34;;;;;;;30.40;19.70;;;4.20;98.80;;;;;;5058679;28;20064;-79
2021/11/28 08:03:00;;;;;;;34.15;20.08;;;4.30;98.90;;;;;;5067646;28;20052;-79
2021/11/28 08:05:27;;;;;;;40.83;21.70;;;4.20;98.90;;;;;;5059709;28;20394;-79
2021/11/28 08:07:53;;;;;;;42.38;25.35;;;4.20;98.90;;;;;;5073406;28;20025;-79
2021/11/28 08:10:19;;;;;;;45.13;24.33;;;4.30;98.90;;;;;;5073712;28;20079;-79
2021/11/28 08:12:45;;;;;;;35.05;21.65;;;4.20;98.90;;;;;;5052699;28;20802;-79
2021/11/28 08:15:15;;;;;;;40.45;22.88;;;4.20;99.00;;;;;;5071969;28;20388;-79
2021/11/28 08:17:50;;;;;;;31.58;21.17;;;4.30;99.10;;;;;;5057182;28;20032;-79
2021/11/28 08:20:17;;;;;;;48.28;25.35;;;4.30;99.00;;;;;;5074374;28;20020;-79
2021/11/28 08:22:44;;;;;;;41.25;22.77;;;4.40;99.00;;;;;;5072680;28;20032;-79
2021/11/28 08:25:14;;;;;;;32.75;21.17;;;4.40;99.00;;;;;;5073861;28;20491;-78
2021/11/28 08:27:40;;;;;;;31.48;20.45;;;4.40;99.00;;;;;;5066376;28;20033;-79
2021/11/28 08:30:15;;;;;;;35.97;22.73;;;4.40;99.00;;;;;;5071683;28;20033;-79
2021/11/28 08:32:42;;;;;;;35.78;22.35;;;4.40;99.00;;;;;;5073513;28;20032;-78
2021/11/28 08:35:10;;;;;;;37.13;24.88;;;4.50;98.90;;;;;;5073803;28;20021;-78
2021/11/28 08:37:36;;;;;;;43.25;27.95;;;4.50;98.90;;;;;;5072550;28;20033;-79
2021/11/28 08:40:04;;;;;;;40.25;25.27;;;4.50;98.80;;;;;;5072282;28;20081;-79
2021/11/28 08:42:34;;;;;;;40.65;26.90;;;4.60;98.70;;;;;;5065730;28;20036;-79
2021/11/28 08:45:02;;;;;;;41.65;27.23;;;4.60;98.70;;;;;;5073786;28;20025;-79
2021/11/28 08:47:28;;;;;;;40.55;25.35;;;4.60;98.70;;;;;;5073948;28;20025;-79
2021/11/28 08:49:54;;;;;;;34.42;23.88;;;4.60;98.70;;;;;;5073416;28;20032;-79
2021/11/28 08:52:19;;;;;;;37.28;24.00;;;4.60;98.80;;;;;;5058193;28;20048;-78
2021/11/28 08:54:45;;;;;;;37.35;23.98;;;4.60;98.70;;;;;;5054408;28;20103;-78
2021/11/28 08:57:11;;;;;;;38.50;23.85;;;4.60;98.70;;;;;;5073874;28;20508;-78
2021/11/28 08:59:37;;;;;;;35.00;24.60;;;4.60;98.70;;;;;;5060467;28;20108;-78
2021/11/28 09:02:02;;;;;;;33.60;23.95;;;4.70;98.70;;;;;;5055705;28;20040;-79
2021/11/28 09:04:28;;;;;;;42.45;25.25;;;4.70;99.00;;;;;;5072484;28;20034;-79
2021/11/28 09:06:54;;;;;;;45.67;28.25;;;4.80;98.80;;;;;;5072472;28;20370;-79
2021/11/28 09:09:19;;;;;;;40.60;25.52;;;4.80;98.70;;;;;;5072567;28;20040;-79
2021/11/28 09:11:45;;;;;;;43.65;25.98;;;4.80;98.70;;;;;;5055612;28;20056;-79
2021/11/28 09:14:11;;;;;;;42.58;25.35;;;4.80;98.70;;;;;;5072657;28;20025;-79
2021/11/28 09:16:37;;;;;;;40.55;25.52;;;4.90;98.60;;;;;;5073038;28;20559;-79
2021/11/28 09:19:08;;;;;;;42.22;27.80;;;4.90;98.60;;;;;;5055709;28;20033;-79
2021/11/28 09:21:33;;;;;;;45.53;26.58;;;4.90;98.60;;;;;;5064606;28;20104;-79
2021/11/28 09:26:44;;;;;;;43.58;27.00;;;5.00;98.70;;;;;;5062394;28;20167;-79
2021/11/28 09:29:11;;;;;;;41.08;26.67;;;5.00;98.70;;;;;;5054642;28;20055;-79
2021/11/28 09:31:37;;;;;;;43.85;27.67;;;5.00;98.70;;;;;;5025024;28;20086;-79
2021/11/28 09:34:03;;;;;;;46.97;29.25;;;5.10;98.70;;;;;;5045196;28;20841;-79
2021/11/28 09:36:32;;;;;;;45.80;27.98;;;5.20;98.60;;;;;;5051186;28;20017;-79
2021/11/28 09:38:58;;;;;;;52.20;30.83;;;5.20;98.60;;;;;;5068478;28;20024;-77
2021/11/28 09:41:25;;;;;;;50.03;30.02;;;5.30;98.50;;;;;;5071852;28;20037;-79
2021/11/28 09:43:54;;;;;;;51.80;29.98;;;5.40;98.30;;;;;;5053816;28;20134;-79
2021/11/28 09:46:24;;;;;;;;;;;5.40;98.20;;;;;;5066528;28;20032;-80
2021/11/28 09:48:57;;;;;;;47.08;28.05;;;5.40;98.10;;;;;;5065497;28;19909;-80
2021/11/28 09:51:27;;;;;;;43.67;27.92;;;5.40;98.00;;;;;;5024515;28;20055;-81
2021/11/28 09:53:54;;;;;;;49.88;28.40;;;5.30;98.00;;;;;;5050829;28;20036;-80
2021/11/28 09:56:20;;;;;;;50.33;29.83;;;5.30;98.00;;;;;;5033465;28;20051;-80
2021/11/28 09:58:46;;;;;;;49.55;28.92;;;5.30;98.10;;;;;;5070163;28;20025;-79
2021/11/28 10:01:12;;;;;;;53.55;29.80;;;5.40;98.20;;;;;;5071696;28;20056;-80
2021/11/28 10:03:38;;;;;;;50.70;29.95;;;5.40;98.20;;;;;;5054363;28;20039;-80
2021/11/28 10:06:04;;;;;;;52.95;28.35;;;5.50;98.10;;;;;;5071942;28;20055;-80
2021/11/28 10:08:29;;;;;;;53.50;29.95;;;5.50;98.10;;;;;;5053948;28;20064;-80
2021/11/28 10:11:16;;;;;;;46.88;29.60;;;5.50;98.00;;;;;;5033295;28;20044;-80
2021/11/28 10:13:53;;;;;;;48.30;27.70;;;5.50;97.90;;;;;;5050010;28;20400;-79
2021/11/28 10:16:19;;;;;;;44.92;27.10;;;5.50;97.90;;;;;;5053959;28;20055;-80
2021/11/28 10:18:46;;;;;;;46.30;27.55;;;5.50;97.90;;;;;;5050362;28;20758;-80
2021/11/28 10:21:12;;;;;;;45.75;26.88;;;5.50;97.80;;;;;;5069632;28;20029;-80
2021/11/28 10:24:04;;;;;;;41.78;25.17;;;5.50;97.80;;;;;;5061221;28;20056;-79
2021/11/28 10:26:29;;;;;;;44.28;26.58;;;5.50;97.80;;;;;;5071691;28;20028;-80
2021/11/28 10:29:13;;;;;;;41.78;25.65;;;5.40;97.60;;;;;;5070137;28;20578;-79
2021/11/28 10:31:51;;;;;;;41.13;25.02;;;5.40;97.60;;;;;;5050846;28;20924;-79
2021/11/28 10:34:23;;;;;;;42.83;25.05;;;5.40;97.50;;;;;;5060833;28;20024;-81
2021/11/28 10:36:50;;;;;;;46.42;25.33;;;5.40;97.60;;;;;;5070446;28;20032;-80
2021/11/28 10:39:22;;;;;;;41.45;24.83;;;5.40;97.60;;;;;;5070261;28;20102;-80
2021/11/28 10:41:54;;;;;;;39.08;23.80;;;5.40;97.50;;;;;;5065781;28;20024;-80
2021/11/28 10:44:23;;;;;;;37.40;23.75;;;5.40;97.50;;;;;;5070575;28;20052;-79
2021/11/28 10:46:49;;;;;;;40.60;23.83;;;5.50;97.20;;;;;;5057703;28;20025;-80
2021/11/28 10:49:16;;;;;;;33.50;21.52;;;5.40;96.80;;;;;;5065402;28;20041;-80
2021/11/28 10:51:51;;;;;;;35.25;22.42;;;5.30;96.80;;;;;;5071025;28;20104;-79
2021/11/28 10:54:41;;;;;;;35.20;22.00;;;5.30;96.80;;;;;;5072804;28;20126;-80
2021/11/28 10:57:07;;;;;;;37.30;22.27;;;5.30;96.90;;;;;;5074414;28;20381;-79
2021/11/28 10:59:37;;;;;;;36.20;22.27;;;5.30;96.90;;;;;;5072575;28;20103;-79
2021/11/28 11:02:27;;;;;;;41.13;24.00;;;5.30;96.80;;;;;;5072197;28;20104;-79
2021/11/28 11:04:54;;;;;;;38.40;22.17;;;5.40;96.90;;;;;;5072814;28;20032;-80
2021/11/28 11:07:24;;;;;;;34.13;21.48;;;5.50;96.90;;;;;;5055597;28;20036;-80
2021/11/28 11:09:52;;;;;;;39.95;23.67;;;5.60;96.80;;;;;;5073989;28;20385;-80
2021/11/28 11:12:22;;;;;;;42.83;24.80;;;5.70;96.70;;;;;;5068120;28;20035;-78
2021/11/28 11:14:50;;;;;;;34.33;23.13;;;5.70;96.50;;;;;;5070478;28;20391;-80
2021/11/28 11:17:16;;;;;;;36.63;22.67;;;5.80;96.40;;;;;;5037211;28;20025;-79
2021/11/28 11:19:46;;;;;;;36.30;23.05;;;5.80;96.20;;;;;;5071963;28;20042;-79
2021/11/28 11:22:26;;;;;;;32.13;20.70;;;5.80;96.10;;;;;;5074592;28;20028;-80
2021/11/28 11:25:07;;;;;;;25.67;17.98;;;5.80;96.00;;;;;;5074483;28;20108;-80
2021/11/28 11:27:39;;;;;;;26.45;18.05;;;5.80;95.80;;;;;;5061464;28;20108;-81
2021/11/28 11:30:08;;;;;;;28.30;17.63;;;5.90;95.40;;;;;;5070846;28;20426;-81
2021/11/28 11:32:39;;;;;;;26.48;17.42;;;5.90;94.70;;;;;;5075055;28;20396;-80
2021/11/28 11:35:09;;;;;;;31.13;18.58;;;6.30;93.70;;;;;;5067498;28;20020;-80
2021/11/28 11:37:36;;;;;;;27.75;17.10;;;6.80;92.30;;;;;;5037241;28;20025;-80
2021/11/28 11:40:09;;;;;;;27.83;18.40;;;7.30;91.40;;;;;;5062646;28;20090;-81
2021/11/28 11:42:37;;;;;;;31.77;17.70;;;7.50;90.60;;;;;;5052354;28;20024;-81
2021/11/28 11:45:06;;;;;;;25.33;17.00;;;7.10;90.90;;;;;;5074782;28;20483;-81
2021/11/28 11:47:31;;;;;;;28.88;17.95;;;6.70;91.60;;;;;;5070749;28;20024;-80
2021/11/28 11:49:57;;;;;;;28.13;18.35;;;6.90;91.40;;;;;;5019201;28;20545;-81
2021/11/28 11:52:24;;;;;;;29.55;19.05;;;7.40;90.50;;;;;;5056152;28;20078;-80
2021/11/28 11:54:56;;;;;;;33.40;19.52;;;7.70;89.60;;;;;;5051883;28;20021;-81
2021/11/28 11:57:23;;;;;;;27.73;18.42;;;8.10;87.50;;;;;;5046009;28;20024;-81
2021/11/28 12:00:08;;;;;;;27.48;18.23;;;8.50;86.00;;;;;;5067267;28;20028;-81
2021/11/28 12:02:38;;;;;;;30.50;19.85;;;8.70;84.80;;;;;;5047929;28;20507;-80
2021/11/28 12:05:25;;;;;;;28.60;19.13;;;8.70;84.20;;;;;;5048660;28;20374;-80
2021/11/28 12:08:03;;;;;;;28.38;17.95;;;8.80;83.60;;;;;;5066009;28;20528;-79
2021/11/28 12:10:47;;;;;;;26.58;17.90;;;8.70;83.50;;;;;;5055527;28;20032;-79
2021/11/28 12:13:25;;;;;;;28.75;18.20;;;8.40;84.90;;;;;;5055939;28;20039;-78
2021/11/28 12:15:52;;;;;;;25.50;16.83;;;8.20;85.10;;;;;;5059877;28;20404;-79
2021/11/28 12:18:38;;;;;;;30.05;17.23;;;7.80;87.30;;;;;;5073923;28;20021;-78
2021/11/28 12:21:07;;;;;;;27.30;17.15;;;7.30;89.10;;;;;;5072522;28;20346;-79
2021/11/28 12:24:02;;;;;;;26.88;16.90;;;7.00;90.60;;;;;;5074159;28;20029;-79
2021/11/28 12:26:29;;;;;;;27.25;17.88;;;6.70;91.50;;;;;;5083533;28;20032;-79
2021/11/28 12:28:59;;;;;;;30.80;18.98;;;6.60;91.90;;;;;;5071836;28;20024;-79
2021/11/28 12:31:33;;;;;;;25.88;17.73;;;6.50;92.20;;;;;;5073101;28;20021;-79
2021/11/28 12:34:08;;;;;;;27.80;18.70;;;6.50;92.40;;;;;;5072051;28;20020;-81
2021/11/28 12:36:38;;;;;;;24.95;16.27;;;6.40;92.60;;;;;;5074026;28;20017;-79
2021/11/28 12:39:15;;;;;;;30.80;18.55;;;6.30;92.70;;;;;;5068738;28;20004;-80
2021/11/28 12:41:44;;;;;;;30.55;18.65;;;6.20;92.70;;;;;;5072360;28;20031;-79
2021/11/28 12:44:11;;;;;;;28.23;17.88;;;6.20;92.50;;;;;;5068288;28;20036;-79
2021/11/28 12:46:50;;;;;;;32.85;18.02;;;6.10;92.80;;;;;;5073594;28;20033;-79